Ingomar, Mississippi
Current Conditions -  °F | °C
As of 11:51 PM on Sunday 21 Dec 2014 (Local Time) from KTUP Reporting Station
Overcast Overcast  
Wind Chill: 45°   Ceiling: 2500
Heat Index: 48°   Visibility: 7mi
Dew Point: 45°   Wind: 8mph
Humidity: 87%   Direction: 190°S
Pressure: 29.98"   Gusts: NA
Location:  34.4917°N, 88.9766°W
Report Text: KTUP 220551Z AUTO 19007KT 7SM SCT006 OVC025 09/07 A2998 RMK AO2
Loading
Personal Weather Stations






























Interactive Weather Map New forecast layout! Learn more

10-Day Weather Forecast

Advertisements
Track Severe Weather on mobile